Terminal Aerodrome Forecast
Issued by NWS Twin Cities, MN

Home | Current Version | Previous Version | Text Only | Print | Product List | Glossary Off
Versions: 1 2 3 4 5 6 7 8 9 10 11 12 13 14 15 16 17 18 19 20

000
FTUS43 KMPX 281700
TAFSTC
TAF
KSTC 281720Z 2818/2918 29015G24KT P6SM BKN018 OVC040
     FM290000 30012KT P6SM SCT025 BKN040
     FM290900 31007KT P6SM BKN020 OVC040
     FM291700 30006KT P6SM SCT025 BKN040=

USA.gov is the U.S. government's official web portal to all federal, state and local government web resources and services.